sensor_id;sensor_type;location;lat;lon;timestamp;P1;durP1;ratioP1;P2;durP2;ratioP2
55461;SDS011;41327;45.102;20.624;2022-08-19T00:02:01;10.50;;;7.15;;
55461;SDS011;41327;45.102;20.624;2022-08-19T00:04:29;7.85;;;6.85;;
55461;SDS011;41327;45.102;20.624;2022-08-19T00:06:57;10.85;;;7.32;;
55461;SDS011;41327;45.102;20.624;2022-08-19T00:09:23;10.55;;;7.20;;
55461;SDS011;41327;45.102;20.624;2022-08-19T00:11:50;13.23;;;7.32;;
55461;SDS011;41327;45.102;20.624;2022-08-19T00:14:17;7.80;;;6.95;;
55461;SDS011;41327;45.102;20.624;2022-08-19T00:16:43;10.50;;;6.88;;
55461;SDS011;41327;45.102;20.624;2022-08-19T00:19:11;8.65;;;6.43;;
55461;SDS011;41327;45.102;20.624;2022-08-19T00:21:38;14.38;;;7.53;;
55461;SDS011;41327;45.102;20.624;2022-08-19T00:24:05;9.20;;;6.47;;
55461;SDS011;41327;45.102;20.624;2022-08-19T00:26:31;10.00;;;6.90;;
55461;SDS011;41327;45.102;20.624;2022-08-19T00:28:58;13.63;;;8.43;;
55461;SDS011;41327;45.102;20.624;2022-08-19T00:31:24;9.65;;;6.80;;
55461;SDS011;41327;45.102;20.624;2022-08-19T00:33:50;8.77;;;7.05;;
55461;SDS011;41327;45.102;20.624;2022-08-19T00:36:16;10.85;;;7.28;;
55461;SDS011;41327;45.102;20.624;2022-08-19T00:38:41;10.52;;;7.10;;
55461;SDS011;41327;45.102;20.624;2022-08-19T00:41:09;11.77;;;7.47;;
55461;SDS011;41327;45.102;20.624;2022-08-19T00:43:37;12.75;;;7.30;;
55461;SDS011;41327;45.102;20.624;2022-08-19T00:46:04;11.50;;;6.47;;
55461;SDS011;41327;45.102;20.624;2022-08-19T00:48:30;9.52;;;7.05;;
55461;SDS011;41327;45.102;20.624;2022-08-19T00:50:57;7.88;;;7.10;;
55461;SDS011;41327;45.102;20.624;2022-08-19T00:53:24;9.90;;;7.53;;
55461;SDS011;41327;45.102;20.624;2022-08-19T00:55:53;11.15;;;7.65;;
55461;SDS011;41327;45.102;20.624;2022-08-19T00:58:21;11.43;;;7.35;;
55461;SDS011;41327;45.102;20.624;2022-08-19T01:00:49;9.98;;;7.30;;
55461;SDS011;41327;45.102;20.624;2022-08-19T01:03:15;11.70;;;7.00;;
55461;SDS011;41327;45.102;20.624;2022-08-19T01:05:43;10.25;;;7.07;;
55461;SDS011;41327;45.102;20.624;2022-08-19T01:08:09;9.75;;;7.03;;
55461;SDS011;41327;45.102;20.624;2022-08-19T01:10:40;10.32;;;7.10;;
55461;SDS011;41327;45.102;20.624;2022-08-19T01:13:07;7.80;;;6.43;;
55461;SDS011;41327;45.102;20.624;2022-08-19T01:15:35;10.32;;;7.05;;
55461;SDS011;41327;45.102;20.624;2022-08-19T01:18:06;11.52;;;6.45;;
55461;SDS011;41327;45.102;20.624;2022-08-19T01:20:34;10.60;;;7.13;;
55461;SDS011;41327;45.102;20.624;2022-08-19T01:22:59;8.88;;;6.88;;
55461;SDS011;41327;45.102;20.624;2022-08-19T01:25:34;8.02;;;6.32;;
55461;SDS011;41327;45.102;20.624;2022-08-19T01:28:05;9.73;;;6.32;;
55461;SDS011;41327;45.102;20.624;2022-08-19T01:30:31;9.68;;;6.68;;
55461;SDS011;41327;45.102;20.624;2022-08-19T01:32:59;7.10;;;6.40;;
55461;SDS011;41327;45.102;20.624;2022-08-19T01:35:26;12.18;;;6.95;;
55461;SDS011;41327;45.102;20.624;2022-08-19T01:37:55;9.38;;;6.78;;
55461;SDS011;41327;45.102;20.624;2022-08-19T01:40:32;11.02;;;6.82;;
55461;SDS011;41327;45.102;20.624;2022-08-19T01:42:58;8.80;;;6.15;;
55461;SDS011;41327;45.102;20.624;2022-08-19T01:45:25;9.57;;;6.18;;
55461;SDS011;41327;45.102;20.624;2022-08-19T01:47:52;11.75;;;7.40;;
55461;SDS011;41327;45.102;20.624;2022-08-19T01:50:17;14.45;;;6.72;;
55461;SDS011;41327;45.102;20.624;2022-08-19T01:52:43;8.35;;;6.43;;
55461;SDS011;41327;45.102;20.624;2022-08-19T01:55:11;11.85;;;7.30;;
55461;SDS011;41327;45.102;20.624;2022-08-19T01:57:38;7.60;;;6.07;;
55461;SDS011;41327;45.102;20.624;2022-08-19T02:00:07;8.57;;;6.55;;
55461;SDS011;41327;45.102;20.624;2022-08-19T02:02:35;13.45;;;7.20;;
55461;SDS011;41327;45.102;20.624;2022-08-19T02:05:01;10.77;;;6.32;;
55461;SDS011;41327;45.102;20.624;2022-08-19T02:07:26;16.08;;;7.30;;
55461;SDS011;41327;45.102;20.624;2022-08-19T02:09:53;9.00;;;6.20;;
55461;SDS011;41327;45.102;20.624;2022-08-19T02:12:20;7.78;;;6.40;;
55461;SDS011;41327;45.102;20.624;2022-08-19T02:14:45;9.35;;;6.75;;
55461;SDS011;41327;45.102;20.624;2022-08-19T02:17:11;16.05;;;6.45;;
55461;SDS011;41327;45.102;20.624;2022-08-19T02:19:37;8.55;;;6.55;;
55461;SDS011;41327;45.102;20.624;2022-08-19T02:22:02;8.80;;;6.13;;
55461;SDS011;41327;45.102;20.624;2022-08-19T02:24:28;8.13;;;7.13;;
55461;SDS011;41327;45.102;20.624;2022-08-19T02:26:53;11.25;;;5.82;;
55461;SDS011;41327;45.102;20.624;2022-08-19T02:29:19;6.50;;;5.57;;
55461;SDS011;41327;45.102;20.624;2022-08-19T02:31:45;9.02;;;6.63;;
55461;SDS011;41327;45.102;20.624;2022-08-19T02:34:10;11.40;;;6.93;;
55461;SDS011;41327;45.102;20.624;2022-08-19T02:36:36;7.53;;;6.07;;
55461;SDS011;41327;45.102;20.624;2022-08-19T02:39:02;7.35;;;5.97;;
55461;SDS011;41327;45.102;20.624;2022-08-19T02:41:29;7.55;;;5.82;;
55461;SDS011;41327;45.102;20.624;2022-08-19T02:43:57;8.57;;;5.63;;
55461;SDS011;41327;45.102;20.624;2022-08-19T02:46:25;10.35;;;5.40;;
55461;SDS011;41327;45.102;20.624;2022-08-19T02:48:55;7.15;;;6.10;;
55461;SDS011;41327;45.102;20.624;2022-08-19T02:51:27;7.95;;;5.50;;
55461;SDS011;41327;45.102;20.624;2022-08-19T02:53:57;7.30;;;5.47;;
55461;SDS011;41327;45.102;20.624;2022-08-19T02:56:23;8.07;;;5.85;;
55461;SDS011;41327;45.102;20.624;2022-08-19T02:58:53;7.68;;;5.88;;
55461;SDS011;41327;45.102;20.624;2022-08-19T03:01:29;10.52;;;5.40;;
55461;SDS011;41327;45.102;20.624;2022-08-19T03:03:56;9.25;;;5.57;;
55461;SDS011;41327;45.102;20.624;2022-08-19T03:06:24;6.93;;;4.65;;
55461;SDS011;41327;45.102;20.624;2022-08-19T03:08:50;7.80;;;5.13;;
55461;SDS011;41327;45.102;20.624;2022-08-19T03:11:16;6.03;;;5.13;;
55461;SDS011;41327;45.102;20.624;2022-08-19T03:13:42;7.95;;;5.30;;
55461;SDS011;41327;45.102;20.624;2022-08-19T03:16:08;9.75;;;5.57;;
55461;SDS011;41327;45.102;20.624;2022-08-19T03:18:34;7.63;;;5.00;;
55461;SDS011;41327;45.102;20.624;2022-08-19T03:20:59;9.80;;;4.95;;
55461;SDS011;41327;45.102;20.624;2022-08-19T03:23:25;5.97;;;4.75;;
55461;SDS011;41327;45.102;20.624;2022-08-19T03:25:53;11.25;;;5.18;;
55461;SDS011;41327;45.102;20.624;2022-08-19T03:28:19;8.73;;;5.03;;
55461;SDS011;41327;45.102;20.624;2022-08-19T03:30:59;9.82;;;4.65;;
55461;SDS011;41327;45.102;20.624;2022-08-19T03:33:30;6.40;;;4.30;;
55461;SDS011;41327;45.102;20.624;2022-08-19T03:36:04;7.90;;;5.18;;
55461;SDS011;41327;45.102;20.624;2022-08-19T03:38:35;7.32;;;4.82;;
55461;SDS011;41327;45.102;20.624;2022-08-19T03:41:02;5.25;;;4.43;;
55461;SDS011;41327;45.102;20.624;2022-08-19T03:43:36;7.10;;;5.30;;
55461;SDS011;41327;45.102;20.624;2022-08-19T03:46:04;8.18;;;4.65;;
55461;SDS011;41327;45.102;20.624;2022-08-19T03:48:32;7.15;;;4.85;;
55461;SDS011;41327;45.102;20.624;2022-08-19T03:50:58;9.07;;;4.80;;
55461;SDS011;41327;45.102;20.624;2022-08-19T03:53:25;7.13;;;4.65;;
55461;SDS011;41327;45.102;20.624;2022-08-19T03:55:53;11.90;;;5.50;;
55461;SDS011;41327;45.102;20.624;2022-08-19T03:58:18;6.70;;;4.35;;
55461;SDS011;41327;45.102;20.624;2022-08-19T04:00:44;7.72;;;4.30;;
55461;SDS011;41327;45.102;20.624;2022-08-19T04:03:10;10.80;;;4.70;;
55461;SDS011;41327;45.102;20.624;2022-08-19T04:08:58;11.45;;;4.68;;
55461;SDS011;41327;45.102;20.624;2022-08-19T04:11:26;9.98;;;5.07;;
55461;SDS011;41327;45.102;20.624;2022-08-19T04:13:54;11.55;;;5.13;;
55461;SDS011;41327;45.102;20.624;2022-08-19T04:16:21;9.70;;;4.65;;
55461;SDS011;41327;45.102;20.624;2022-08-19T04:18:48;6.72;;;4.10;;
55461;SDS011;41327;45.102;20.624;2022-08-19T04:21:20;7.80;;;4.45;;
55461;SDS011;41327;45.102;20.624;2022-08-19T04:23:47;7.88;;;4.88;;
55461;SDS011;41327;45.102;20.624;2022-08-19T04:26:20;6.97;;;4.75;;
55461;SDS011;41327;45.102;20.624;2022-08-19T04:28:50;7.40;;;4.20;;
55461;SDS011;41327;45.102;20.624;2022-08-19T04:31:23;5.10;;;4.05;;
55461;SDS011;41327;45.102;20.624;2022-08-19T04:33:53;5.68;;;4.28;;
55461;SDS011;41327;45.102;20.624;2022-08-19T04:36:24;8.00;;;4.47;;
55461;SDS011;41327;45.102;20.624;2022-08-19T04:38:54;8.13;;;4.57;;
55461;SDS011;41327;45.102;20.624;2022-08-19T04:41:21;6.50;;;4.78;;
55461;SDS011;41327;45.102;20.624;2022-08-19T04:44:05;6.32;;;4.00;;
55461;SDS011;41327;45.102;20.624;2022-08-19T04:46:31;6.30;;;4.43;;
55461;SDS011;41327;45.102;20.624;2022-08-19T04:48:58;6.53;;;4.88;;
55461;SDS011;41327;45.102;20.624;2022-08-19T04:51:24;6.32;;;4.70;;
55461;SDS011;41327;45.102;20.624;2022-08-19T04:53:50;6.10;;;4.50;;
55461;SDS011;41327;45.102;20.624;2022-08-19T04:56:17;8.18;;;4.50;;
55461;SDS011;41327;45.102;20.624;2022-08-19T04:58:44;7.25;;;4.13;;
55461;SDS011;41327;45.102;20.624;2022-08-19T05:01:14;7.22;;;4.25;;
55461;SDS011;41327;45.102;20.624;2022-08-19T05:03:43;6.23;;;4.50;;
55461;SDS011;41327;45.102;20.624;2022-08-19T05:06:10;7.85;;;4.18;;
55461;SDS011;41327;45.102;20.624;2022-08-19T05:08:37;8.15;;;4.95;;
55461;SDS011;41327;45.102;20.624;2022-08-19T05:11:11;4.18;;;3.63;;
55461;SDS011;41327;45.102;20.624;2022-08-19T05:13:39;7.50;;;4.28;;
55461;SDS011;41327;45.102;20.624;2022-08-19T05:16:04;5.82;;;3.85;;
55461;SDS011;41327;45.102;20.624;2022-08-19T05:18:30;5.70;;;4.70;;
55461;SDS011;41327;45.102;20.624;2022-08-19T05:21:16;5.63;;;4.50;;
55461;SDS011;41327;45.102;20.624;2022-08-19T05:24:02;7.28;;;5.30;;
55461;SDS011;41327;45.102;20.624;2022-08-19T05:26:28;8.55;;;4.18;;
55461;SDS011;41327;45.102;20.624;2022-08-19T05:28:54;6.75;;;3.83;;
55461;SDS011;41327;45.102;20.624;2022-08-19T05:31:20;4.70;;;4.25;;
55461;SDS011;41327;45.102;20.624;2022-08-19T05:33:46;6.43;;;3.88;;
55461;SDS011;41327;45.102;20.624;2022-08-19T05:36:12;5.53;;;4.05;;
55461;SDS011;41327;45.102;20.624;2022-08-19T05:38:39;5.18;;;4.07;;
55461;SDS011;41327;45.102;20.624;2022-08-19T05:41:08;6.30;;;4.07;;
55461;SDS011;41327;45.102;20.624;2022-08-19T05:43:34;5.53;;;4.15;;
55461;SDS011;41327;45.102;20.624;2022-08-19T05:46:00;5.28;;;3.83;;
55461;SDS011;41327;45.102;20.624;2022-08-19T05:48:25;8.02;;;5.43;;
55461;SDS011;41327;45.102;20.624;2022-08-19T05:50:51;7.70;;;4.40;;
55461;SDS011;41327;45.102;20.624;2022-08-19T05:53:17;7.18;;;4.25;;
55461;SDS011;41327;45.102;20.624;2022-08-19T05:55:43;5.35;;;4.18;;
55461;SDS011;41327;45.102;20.624;2022-08-19T05:58:09;8.55;;;4.13;;
55461;SDS011;41327;45.102;20.624;2022-08-19T06:00:35;5.68;;;4.15;;
55461;SDS011;41327;45.102;20.624;2022-08-19T06:03:01;4.95;;;4.10;;
55461;SDS011;41327;45.102;20.624;2022-08-19T06:05:29;5.10;;;4.30;;
55461;SDS011;41327;45.102;20.624;2022-08-19T06:07:55;5.57;;;4.38;;
55461;SDS011;41327;45.102;20.624;2022-08-19T06:10:21;6.68;;;4.20;;
55461;SDS011;41327;45.102;20.624;2022-08-19T06:12:47;5.03;;;4.07;;
55461;SDS011;41327;45.102;20.624;2022-08-19T06:15:13;5.53;;;3.90;;
55461;SDS011;41327;45.102;20.624;2022-08-19T06:17:39;4.40;;;3.80;;
55461;SDS011;41327;45.102;20.624;2022-08-19T06:20:08;7.32;;;4.45;;
55461;SDS011;41327;45.102;20.624;2022-08-19T06:25:05;7.82;;;4.20;;
55461;SDS011;41327;45.102;20.624;2022-08-19T06:27:31;4.93;;;4.00;;
55461;SDS011;41327;45.102;20.624;2022-08-19T06:29:58;4.82;;;3.90;;
55461;SDS011;41327;45.102;20.624;2022-08-19T06:32:23;4.55;;;4.15;;
55461;SDS011;41327;45.102;20.624;2022-08-19T06:34:49;7.30;;;4.20;;
55461;SDS011;41327;45.102;20.624;2022-08-19T06:37:14;8.45;;;4.15;;
55461;SDS011;41327;45.102;20.624;2022-08-19T06:39:41;6.25;;;4.22;;
55461;SDS011;41327;45.102;20.624;2022-08-19T06:42:08;5.32;;;4.05;;
55461;SDS011;41327;45.102;20.624;2022-08-19T06:44:36;6.05;;;4.03;;
55461;SDS011;41327;45.102;20.624;2022-08-19T06:47:05;7.40;;;4.65;;
55461;SDS011;41327;45.102;20.624;2022-08-19T06:49:32;5.13;;;4.20;;
55461;SDS011;41327;45.102;20.624;2022-08-19T06:51:58;7.95;;;3.63;;
55461;SDS011;41327;45.102;20.624;2022-08-19T06:54:24;8.20;;;4.13;;
55461;SDS011;41327;45.102;20.624;2022-08-19T06:56:50;6.07;;;3.67;;
55461;SDS011;41327;45.102;20.624;2022-08-19T06:59:18;7.70;;;4.00;;
55461;SDS011;41327;45.102;20.624;2022-08-19T07:01:47;5.15;;;4.05;;
55461;SDS011;41327;45.102;20.624;2022-08-19T07:04:16;4.75;;;4.20;;
55461;SDS011;41327;45.102;20.624;2022-08-19T07:06:43;5.15;;;4.07;;
55461;SDS011;41327;45.102;20.624;2022-08-19T07:09:10;4.75;;;4.00;;
55461;SDS011;41327;45.102;20.624;2022-08-19T07:11:37;5.13;;;3.95;;
55461;SDS011;41327;45.102;20.624;2022-08-19T07:14:03;7.75;;;3.83;;
55461;SDS011;41327;45.102;20.624;2022-08-19T07:16:31;8.40;;;4.68;;
55461;SDS011;41327;45.102;20.624;2022-08-19T07:18:57;6.82;;;4.05;;
55461;SDS011;41327;45.102;20.624;2022-08-19T07:21:24;6.50;;;3.72;;
55461;SDS011;41327;45.102;20.624;2022-08-19T07:23:55;6.20;;;3.92;;
55461;SDS011;41327;45.102;20.624;2022-08-19T07:26:26;5.65;;;3.95;;
55461;SDS011;41327;45.102;20.624;2022-08-19T07:28:53;5.88;;;4.22;;
55461;SDS011;41327;45.102;20.624;2022-08-19T07:31:21;5.95;;;4.15;;
55461;SDS011;41327;45.102;20.624;2022-08-19T07:33:48;5.88;;;4.38;;
55461;SDS011;41327;45.102;20.624;2022-08-19T07:36:15;5.60;;;4.18;;
55461;SDS011;41327;45.102;20.624;2022-08-19T07:38:44;6.03;;;4.38;;
55461;SDS011;41327;45.102;20.624;2022-08-19T07:41:13;6.47;;;4.05;;
55461;SDS011;41327;45.102;20.624;2022-08-19T07:43:40;4.88;;;4.10;;
55461;SDS011;41327;45.102;20.624;2022-08-19T07:46:08;6.20;;;4.13;;
55461;SDS011;41327;45.102;20.624;2022-08-19T07:48:34;7.20;;;3.97;;
55461;SDS011;41327;45.102;20.624;2022-08-19T07:51:00;8.15;;;4.43;;
55461;SDS011;41327;45.102;20.624;2022-08-19T07:53:28;7.15;;;4.55;;
55461;SDS011;41327;45.102;20.624;2022-08-19T07:55:55;6.00;;;4.75;;
55461;SDS011;41327;45.102;20.624;2022-08-19T07:58:24;5.82;;;3.80;;
55461;SDS011;41327;45.102;20.624;2022-08-19T08:00:50;6.85;;;4.03;;
55461;SDS011;41327;45.102;20.624;2022-08-19T08:03:17;4.32;;;3.92;;
55461;SDS011;41327;45.102;20.624;2022-08-19T08:05:44;6.57;;;4.30;;
55461;SDS011;41327;45.102;20.624;2022-08-19T08:08:28;5.45;;;3.47;;
55461;SDS011;41327;45.102;20.624;2022-08-19T08:13:38;10.43;;;4.47;;
55461;SDS011;41327;45.102;20.624;2022-08-19T08:16:05;5.72;;;4.03;;
55461;SDS011;41327;45.102;20.624;2022-08-19T08:18:31;7.13;;;4.50;;
55461;SDS011;41327;45.102;20.624;2022-08-19T08:20:57;5.80;;;4.10;;
55461;SDS011;41327;45.102;20.624;2022-08-19T08:23:23;4.20;;;3.80;;
55461;SDS011;41327;45.102;20.624;2022-08-19T08:25:55;7.60;;;4.70;;
55461;SDS011;41327;45.102;20.624;2022-08-19T08:28:21;4.50;;;4.10;;
55461;SDS011;41327;45.102;20.624;2022-08-19T08:30:48;7.18;;;4.22;;
55461;SDS011;41327;45.102;20.624;2022-08-19T08:33:21;8.65;;;4.07;;
55461;SDS011;41327;45.102;20.624;2022-08-19T08:35:47;7.18;;;4.32;;
55461;SDS011;41327;45.102;20.624;2022-08-19T08:38:13;7.03;;;4.32;;
55461;SDS011;41327;45.102;20.624;2022-08-19T08:40:46;4.40;;;3.47;;
55461;SDS011;41327;45.102;20.624;2022-08-19T08:50:58;10.73;;;4.35;;
55461;SDS011;41327;45.102;20.624;2022-08-19T08:53:25;5.47;;;3.80;;
55461;SDS011;41327;45.102;20.624;2022-08-19T08:55:50;4.72;;;3.75;;
55461;SDS011;41327;45.102;20.624;2022-08-19T08:58:18;7.00;;;4.03;;
55461;SDS011;41327;45.102;20.624;2022-08-19T09:00:56;9.30;;;4.57;;
55461;SDS011;41327;45.102;20.624;2022-08-19T09:03:23;6.63;;;4.43;;
55461;SDS011;41327;45.102;20.624;2022-08-19T09:08:47;7.07;;;4.25;;
55461;SDS011;41327;45.102;20.624;2022-08-19T09:11:33;5.28;;;4.07;;
55461;SDS011;41327;45.102;20.624;2022-08-19T09:17:15;8.07;;;5.30;;
55461;SDS011;41327;45.102;20.624;2022-08-19T09:22:37;7.53;;;4.20;;
55461;SDS011;41327;45.102;20.624;2022-08-19T09:25:04;8.85;;;4.32;;
55461;SDS011;41327;45.102;20.624;2022-08-19T09:27:32;6.00;;;3.90;;
55461;SDS011;41327;45.102;20.624;2022-08-19T09:29:57;4.72;;;4.32;;
55461;SDS011;41327;45.102;20.624;2022-08-19T09:32:23;5.47;;;4.50;;
55461;SDS011;41327;45.102;20.624;2022-08-19T09:34:49;6.95;;;4.35;;
55461;SDS011;41327;45.102;20.624;2022-08-19T09:37:14;9.65;;;5.63;;
55461;SDS011;41327;45.102;20.624;2022-08-19T09:39:40;5.38;;;3.72;;
55461;SDS011;41327;45.102;20.624;2022-08-19T09:42:07;10.55;;;4.80;;
55461;SDS011;41327;45.102;20.624;2022-08-19T09:44:37;9.45;;;4.25;;
55461;SDS011;41327;45.102;20.624;2022-08-19T09:47:04;8.85;;;4.20;;
55461;SDS011;41327;45.102;20.624;2022-08-19T09:49:30;5.53;;;4.00;;
55461;SDS011;41327;45.102;20.624;2022-08-19T09:51:56;10.13;;;4.45;;
55461;SDS011;41327;45.102;20.624;2022-08-19T09:54:22;6.70;;;3.92;;
55461;SDS011;41327;45.102;20.624;2022-08-19T09:56:48;4.13;;;3.65;;
55461;SDS011;41327;45.102;20.624;2022-08-19T09:59:14;7.47;;;4.25;;
55461;SDS011;41327;45.102;20.624;2022-08-19T10:01:40;7.63;;;4.57;;
55461;SDS011;41327;45.102;20.624;2022-08-19T10:04:06;8.77;;;3.90;;
55461;SDS011;41327;45.102;20.624;2022-08-19T10:06:35;5.00;;;4.00;;
55461;SDS011;41327;45.102;20.624;2022-08-19T10:09:03;6.88;;;3.90;;
55461;SDS011;41327;45.102;20.624;2022-08-19T10:11:31;6.40;;;3.78;;
55461;SDS011;41327;45.102;20.624;2022-08-19T10:13:57;4.43;;;4.03;;
55461;SDS011;41327;45.102;20.624;2022-08-19T10:16:24;4.50;;;3.80;;
55461;SDS011;41327;45.102;20.624;2022-08-19T10:18:50;6.78;;;3.97;;
55461;SDS011;41327;45.102;20.624;2022-08-19T10:21:18;6.32;;;3.85;;
55461;SDS011;41327;45.102;20.624;2022-08-19T10:23:48;7.13;;;3.90;;
55461;SDS011;41327;45.102;20.624;2022-08-19T10:26:20;8.27;;;4.28;;
55461;SDS011;41327;45.102;20.624;2022-08-19T10:28:48;8.15;;;4.18;;
55461;SDS011;41327;45.102;20.624;2022-08-19T10:31:15;7.32;;;4.57;;
55461;SDS011;41327;45.102;20.624;2022-08-19T10:33:44;6.25;;;3.53;;
55461;SDS011;41327;45.102;20.624;2022-08-19T10:36:11;6.85;;;3.80;;
55461;SDS011;41327;45.102;20.624;2022-08-19T10:38:46;6.75;;;3.58;;
55461;SDS011;41327;45.102;20.624;2022-08-19T10:41:17;8.60;;;3.97;;
55461;SDS011;41327;45.102;20.624;2022-08-19T10:43:44;7.03;;;3.38;;
55461;SDS011;41327;45.102;20.624;2022-08-19T10:46:12;7.30;;;3.28;;
55461;SDS011;41327;45.102;20.624;2022-08-19T10:48:39;6.10;;;3.53;;
55461;SDS011;41327;45.102;20.624;2022-08-19T10:51:07;5.75;;;3.40;;
55461;SDS011;41327;45.102;20.624;2022-08-19T10:53:52;8.20;;;3.40;;
55461;SDS011;41327;45.102;20.624;2022-08-19T10:56:17;5.45;;;3.30;;
55461;SDS011;41327;45.102;20.624;2022-08-19T10:59:02;5.60;;;3.40;;
55461;SDS011;41327;45.102;20.624;2022-08-19T11:01:29;5.18;;;3.60;;
55461;SDS011;41327;45.102;20.624;2022-08-19T11:04:03;7.30;;;4.00;;
55461;SDS011;41327;45.102;20.624;2022-08-19T11:06:29;5.72;;;3.75;;
55461;SDS011;41327;45.102;20.624;2022-08-19T11:08:56;7.63;;;3.20;;
55461;SDS011;41327;45.102;20.624;2022-08-19T11:11:22;7.72;;;3.67;;
55461;SDS011;41327;45.102;20.624;2022-08-19T11:13:48;10.55;;;3.38;;
55461;SDS011;41327;45.102;20.624;2022-08-19T11:16:19;3.40;;;3.03;;
55461;SDS011;41327;45.102;20.624;2022-08-19T11:18:53;6.00;;;3.40;;
55461;SDS011;41327;45.102;20.624;2022-08-19T11:23:47;7.07;;;3.80;;
55461;SDS011;41327;45.102;20.624;2022-08-19T11:26:15;6.45;;;3.50;;
55461;SDS011;41327;45.102;20.624;2022-08-19T11:28:41;10.43;;;3.88;;
55461;SDS011;41327;45.102;20.624;2022-08-19T11:31:11;4.78;;;4.22;;
55461;SDS011;41327;45.102;20.624;2022-08-19T11:33:41;6.32;;;3.80;;
55461;SDS011;41327;45.102;20.624;2022-08-19T11:36:07;6.65;;;3.72;;
55461;SDS011;41327;45.102;20.624;2022-08-19T11:38:33;7.47;;;3.72;;
55461;SDS011;41327;45.102;20.624;2022-08-19T11:41:02;6.72;;;3.95;;
55461;SDS011;41327;45.102;20.624;2022-08-19T11:43:29;6.35;;;4.00;;
55461;SDS011;41327;45.102;20.624;2022-08-19T11:45:55;5.20;;;3.50;;
55461;SDS011;41327;45.102;20.624;2022-08-19T11:48:22;6.22;;;2.83;;
55461;SDS011;41327;45.102;20.624;2022-08-19T11:50:48;7.10;;;4.03;;
55461;SDS011;41327;45.102;20.624;2022-08-19T11:53:15;11.85;;;4.18;;
55461;SDS011;41327;45.102;20.624;2022-08-19T11:55:41;6.18;;;3.45;;
55461;SDS011;41327;45.102;20.624;2022-08-19T11:58:08;9.52;;;4.32;;
55461;SDS011;41327;45.102;20.624;2022-08-19T12:00:34;5.70;;;3.80;;
55461;SDS011;41327;45.102;20.624;2022-08-19T12:03:01;7.00;;;4.20;;
55461;SDS011;41327;45.102;20.624;2022-08-19T12:05:27;7.15;;;4.30;;
55461;SDS011;41327;45.102;20.624;2022-08-19T12:07:53;11.50;;;3.75;;
55461;SDS011;41327;45.102;20.624;2022-08-19T12:10:19;6.70;;;3.72;;
55461;SDS011;41327;45.102;20.624;2022-08-19T12:12:45;6.30;;;3.85;;
55461;SDS011;41327;45.102;20.624;2022-08-19T12:15:11;7.70;;;3.63;;
55461;SDS011;41327;45.102;20.624;2022-08-19T12:17:39;7.30;;;3.65;;
55461;SDS011;41327;45.102;20.624;2022-08-19T12:20:07;6.90;;;3.78;;
55461;SDS011;41327;45.102;20.624;2022-08-19T12:22:35;5.70;;;3.92;;
55461;SDS011;41327;45.102;20.624;2022-08-19T12:25:02;7.70;;;3.40;;
55461;SDS011;41327;45.102;20.624;2022-08-19T12:27:28;5.50;;;3.53;;
55461;SDS011;41327;45.102;20.624;2022-08-19T12:29:53;7.78;;;4.35;;
55461;SDS011;41327;45.102;20.624;2022-08-19T12:32:19;7.57;;;3.83;;
55461;SDS011;41327;45.102;20.624;2022-08-19T12:34:44;6.50;;;4.03;;
55461;SDS011;41327;45.102;20.624;2022-08-19T12:37:12;7.22;;;4.20;;
55461;SDS011;41327;45.102;20.624;2022-08-19T12:39:39;7.80;;;4.03;;
55461;SDS011;41327;45.102;20.624;2022-08-19T12:42:06;13.05;;;4.55;;
55461;SDS011;41327;45.102;20.624;2022-08-19T12:44:34;5.75;;;3.60;;
55461;SDS011;41327;45.102;20.624;2022-08-19T12:47:00;8.05;;;3.55;;
55461;SDS011;41327;45.102;20.624;2022-08-19T12:49:28;6.47;;;3.92;;
55461;SDS011;41327;45.102;20.624;2022-08-19T12:51:54;6.30;;;3.38;;
55461;SDS011;41327;45.102;20.624;2022-08-19T12:54:19;8.05;;;3.53;;
55461;SDS011;41327;45.102;20.624;2022-08-19T12:56:45;8.90;;;3.25;;
55461;SDS011;41327;45.102;20.624;2022-08-19T12:59:10;5.40;;;3.30;;
55461;SDS011;41327;45.102;20.624;2022-08-19T13:01:36;8.18;;;3.50;;
55461;SDS011;41327;45.102;20.624;2022-08-19T13:04:03;8.90;;;3.70;;
55461;SDS011;41327;45.102;20.624;2022-08-19T13:06:29;7.25;;;3.75;;
55461;SDS011;41327;45.102;20.624;2022-08-19T13:08:55;8.88;;;3.65;;
55461;SDS011;41327;45.102;20.624;2022-08-19T13:11:22;4.35;;;3.38;;
55461;SDS011;41327;45.102;20.624;2022-08-19T13:13:51;11.20;;;3.53;;
55461;SDS011;41327;45.102;20.624;2022-08-19T13:16:18;6.68;;;3.72;;
55461;SDS011;41327;45.102;20.624;2022-08-19T13:18:45;9.20;;;4.03;;
55461;SDS011;41327;45.102;20.624;2022-08-19T13:21:12;7.07;;;3.65;;
55461;SDS011;41327;45.102;20.624;2022-08-19T13:23:38;6.05;;;3.80;;
55461;SDS011;41327;45.102;20.624;2022-08-19T13:26:06;5.88;;;3.60;;
55461;SDS011;41327;45.102;20.624;2022-08-19T13:28:32;6.88;;;3.30;;
55461;SDS011;41327;45.102;20.624;2022-08-19T13:31:38;6.75;;;3.53;;
55461;SDS011;41327;45.102;20.624;2022-08-19T13:34:28;6.45;;;3.60;;
55461;SDS011;41327;45.102;20.624;2022-08-19T13:36:59;7.30;;;3.72;;
55461;SDS011;41327;45.102;20.624;2022-08-19T13:39:28;7.65;;;4.28;;
55461;SDS011;41327;45.102;20.624;2022-08-19T13:41:54;7.38;;;3.55;;
55461;SDS011;41327;45.102;20.624;2022-08-19T13:44:20;7.25;;;4.43;;
55461;SDS011;41327;45.102;20.624;2022-08-19T13:46:46;5.13;;;3.15;;
55461;SDS011;41327;45.102;20.624;2022-08-19T13:49:13;10.90;;;3.92;;
55461;SDS011;41327;45.102;20.624;2022-08-19T13:51:39;9.45;;;3.50;;
55461;SDS011;41327;45.102;20.624;2022-08-19T13:54:06;7.75;;;3.78;;
55461;SDS011;41327;45.102;20.624;2022-08-19T13:56:33;10.95;;;3.88;;
55461;SDS011;41327;45.102;20.624;2022-08-19T13:59:00;5.65;;;3.95;;
55461;SDS011;41327;45.102;20.624;2022-08-19T14:01:26;7.15;;;3.65;;
55461;SDS011;41327;45.102;20.624;2022-08-19T14:03:51;9.65;;;4.00;;
55461;SDS011;41327;45.102;20.624;2022-08-19T14:06:17;10.57;;;3.65;;
55461;SDS011;41327;45.102;20.624;2022-08-19T14:08:43;9.98;;;3.70;;
55461;SDS011;41327;45.102;20.624;2022-08-19T14:11:09;6.05;;;3.70;;
55461;SDS011;41327;45.102;20.624;2022-08-19T14:13:35;6.05;;;4.05;;
55461;SDS011;41327;45.102;20.624;2022-08-19T14:16:01;9.27;;;4.28;;
55461;SDS011;41327;45.102;20.624;2022-08-19T14:18:27;7.60;;;3.45;;
55461;SDS011;41327;45.102;20.624;2022-08-19T14:20:52;7.80;;;3.92;;
55461;SDS011;41327;45.102;20.624;2022-08-19T14:23:18;6.13;;;3.90;;
55461;SDS011;41327;45.102;20.624;2022-08-19T14:25:45;4.90;;;3.35;;
55461;SDS011;41327;45.102;20.624;2022-08-19T14:28:11;7.78;;;3.25;;
55461;SDS011;41327;45.102;20.624;2022-08-19T14:30:36;5.18;;;3.45;;
55461;SDS011;41327;45.102;20.624;2022-08-19T14:33:03;9.23;;;4.00;;
55461;SDS011;41327;45.102;20.624;2022-08-19T14:35:30;6.28;;;3.70;;
55461;SDS011;41327;45.102;20.624;2022-08-19T14:38:02;7.88;;;3.55;;
55461;SDS011;41327;45.102;20.624;2022-08-19T14:40:29;7.80;;;3.55;;
55461;SDS011;41327;45.102;20.624;2022-08-19T14:42:55;6.70;;;3.55;;
55461;SDS011;41327;45.102;20.624;2022-08-19T14:45:24;8.00;;;3.83;;
55461;SDS011;41327;45.102;20.624;2022-08-19T14:47:51;8.32;;;3.42;;
55461;SDS011;41327;45.102;20.624;2022-08-19T14:50:18;8.85;;;3.17;;
55461;SDS011;41327;45.102;20.624;2022-08-19T14:52:45;6.43;;;3.38;;
55461;SDS011;41327;45.102;20.624;2022-08-19T14:55:13;8.63;;;3.13;;
55461;SDS011;41327;45.102;20.624;2022-08-19T14:57:40;10.05;;;3.47;;
55461;SDS011;41327;45.102;20.624;2022-08-19T15:00:06;7.40;;;4.13;;
55461;SDS011;41327;45.102;20.624;2022-08-19T15:02:33;9.82;;;3.75;;
55461;SDS011;41327;45.102;20.624;2022-08-19T15:04:58;7.13;;;3.58;;